createdAt,value
2022-09-30T00:00:56.655Z,18.32
2022-09-30T00:03:24.306Z,18.08
2022-09-30T00:06:07.614Z,18.48
2022-09-30T00:08:34.984Z,18.27
2022-09-30T00:11:06.044Z,18.36
2022-09-30T00:13:35.635Z,18.28
2022-09-30T00:16:02.454Z,18.38
2022-09-30T00:18:30.071Z,18.43
2022-09-30T00:20:57.043Z,18.42
2022-09-30T00:23:24.178Z,17.98
2022-09-30T00:25:51.726Z,18.17
2022-09-30T00:28:18.292Z,18.12
2022-09-30T00:30:44.931Z,18.27
2022-09-30T00:33:11.607Z,18.26
2022-09-30T00:35:38.366Z,18.34
2022-09-30T00:38:05.170Z,18.43
2022-09-30T00:40:31.964Z,18.50
2022-09-30T00:43:00.127Z,18.53
2022-09-30T00:45:33.142Z,18.51
2022-09-30T00:48:15.373Z,18.08
2022-09-30T00:50:49.749Z,18.04
2022-09-30T00:53:30.977Z,18.16
2022-09-30T00:56:04.748Z,18.27
2022-09-30T00:58:36.063Z,18.30
2022-09-30T01:01:03.167Z,18.33
2022-09-30T01:03:40.566Z,18.29
2022-09-30T01:06:07.625Z,18.48
2022-09-30T01:08:37.366Z,18.41
2022-09-30T01:11:07.971Z,18.32
2022-09-30T01:13:37.945Z,18.31
2022-09-30T01:16:23.098Z,18.32
2022-09-30T01:19:17.621Z,18.30
2022-09-30T01:21:59.208Z,18.24
2022-09-30T01:24:47.836Z,18.20
2022-09-30T01:27:39.118Z,17.99
2022-09-30T01:30:08.642Z,18.15
2022-09-30T01:32:38.120Z,18.08
2022-09-30T01:35:24.158Z,18.10
2022-09-30T01:38:11.623Z,18.14
2022-09-30T01:41:05.805Z,18.15
2022-09-30T01:44:04.995Z,17.45
2022-09-30T01:46:44.563Z,17.73
2022-09-30T01:49:27.579Z,18.02
2022-09-30T01:51:59.989Z,18.01
2022-09-30T01:54:55.158Z,18.08
2022-09-30T01:58:12.661Z,17.90
2022-09-30T02:00:44.256Z,17.81
2022-09-30T02:03:17.831Z,17.81
2022-09-30T02:05:57.840Z,17.54
2022-09-30T02:08:36.764Z,17.47
2022-09-30T02:11:10.893Z,17.32
2022-09-30T02:13:49.820Z,17.59
2022-09-30T02:16:24.408Z,17.79
2022-09-30T02:18:55.720Z,17.83
2022-09-30T02:21:33.645Z,17.73
2022-09-30T02:24:06.085Z,17.64
2022-09-30T02:26:37.659Z,17.64
2022-09-30T02:29:17.134Z,17.78
2022-09-30T02:31:47.724Z,17.80
2022-09-30T02:34:25.226Z,17.78
2022-09-30T02:36:56.213Z,17.64
2022-09-30T02:39:31.933Z,17.80
2022-09-30T02:42:04.642Z,17.96
2022-09-30T02:44:31.922Z,17.96
2022-09-30T02:47:10.818Z,17.92
2022-09-30T02:49:48.562Z,17.94
2022-09-30T02:52:47.273Z,17.86
2022-09-30T02:55:25.649Z,17.48
2022-09-30T02:57:55.418Z,17.12
2022-09-30T03:00:22.132Z,17.40
2022-09-30T03:02:50.204Z,17.39
2022-09-30T03:05:17.637Z,17.18
2022-09-30T03:07:44.314Z,17.24
2022-09-30T03:10:16.154Z,17.03
2022-09-30T03:13:10.888Z,17.14
2022-09-30T03:16:01.213Z,17.25
2022-09-30T03:18:52.520Z,17.24
2022-09-30T03:21:25.271Z,17.35
2022-09-30T03:24:12.533Z,17.39
2022-09-30T03:26:47.993Z,17.59
2022-09-30T03:29:14.837Z,17.34
2022-09-30T03:31:51.002Z,17.18
2022-09-30T03:34:42.165Z,17.29
2022-09-30T03:37:34.721Z,17.57
2022-09-30T03:40:25.213Z,17.25
2022-09-30T03:42:58.419Z,17.30
2022-09-30T03:45:50.122Z,17.26
2022-09-30T03:48:19.475Z,17.51
2022-09-30T03:50:46.740Z,17.54
2022-09-30T03:53:13.821Z,17.73
2022-09-30T03:55:52.289Z,17.33
2022-09-30T03:58:23.326Z,17.32
2022-09-30T04:00:57.221Z,17.19
2022-09-30T04:03:23.959Z,17.28
2022-09-30T04:05:50.631Z,17.16
2022-09-30T04:08:17.668Z,17.29
2022-09-30T04:10:44.493Z,17.38
2022-09-30T04:13:11.867Z,17.60
2022-09-30T04:15:38.827Z,17.27
2022-09-30T04:18:05.823Z,17.39
2022-09-30T04:20:32.897Z,17.40
2022-09-30T04:23:01.102Z,17.23
2022-09-30T04:25:28.414Z,17.37
2022-09-30T04:27:56.510Z,17.33
2022-09-30T04:30:26.378Z,17.27
2022-09-30T04:32:54.786Z,17.45
2022-09-30T04:35:21.718Z,17.50
2022-09-30T04:37:48.563Z,16.52
2022-09-30T04:40:16.370Z,17.00
2022-09-30T04:42:44.084Z,16.69
2022-09-30T04:45:12.273Z,16.86
2022-09-30T04:47:40.004Z,16.85
2022-09-30T04:50:07.515Z,16.50
2022-09-30T04:52:34.419Z,16.75
2022-09-30T04:55:01.010Z,17.13
2022-09-30T04:57:27.638Z,17.04
2022-09-30T04:59:54.277Z,17.01
2022-09-30T05:02:21.213Z,17.19
2022-09-30T05:04:47.928Z,17.01
2022-09-30T05:07:14.517Z,16.88
2022-09-30T05:09:41.220Z,16.91
2022-09-30T05:12:08.243Z,16.98
2022-09-30T05:14:34.843Z,17.02
2022-09-30T05:17:02.216Z,17.10
2022-09-30T05:19:29.494Z,17.01
2022-09-30T05:21:56.233Z,17.44
2022-09-30T05:24:22.884Z,17.41
2022-09-30T05:26:49.496Z,17.23
2022-09-30T05:29:16.115Z,16.77
2022-09-30T05:31:43.190Z,17.08
2022-09-30T05:34:12.627Z,17.03
2022-09-30T05:36:39.250Z,17.27
2022-09-30T05:39:05.870Z,17.23
2022-09-30T05:41:32.755Z,17.31
2022-09-30T05:44:01.274Z,17.10
2022-09-30T05:46:28.367Z,17.01
2022-09-30T05:48:55.431Z,17.17
2022-09-30T05:51:22.194Z,17.32
2022-09-30T05:53:48.809Z,17.57
2022-09-30T05:56:18.126Z,17.50
2022-09-30T05:58:44.809Z,17.16
2022-09-30T06:01:14.214Z,17.13
2022-09-30T06:03:45.557Z,17.25
2022-09-30T06:06:12.929Z,17.30
2022-09-30T06:08:40.327Z,17.60
2022-09-30T06:11:13.241Z,17.34
2022-09-30T06:13:41.683Z,16.88
2022-09-30T06:16:09.353Z,16.78
2022-09-30T06:18:36.915Z,17.06
2022-09-30T06:21:05.269Z,16.68
2022-09-30T06:23:35.115Z,16.78
2022-09-30T06:26:03.548Z,16.76
2022-09-30T06:28:30.408Z,17.12
2022-09-30T06:31:01.472Z,17.56
2022-09-30T06:33:28.867Z,17.47
2022-09-30T06:35:55.682Z,16.86
2022-09-30T06:38:23.247Z,17.14
2022-09-30T06:40:50.527Z,17.53
2022-09-30T06:43:18.024Z,17.93
2022-09-30T06:45:49.894Z,17.90
2022-09-30T06:48:20.059Z,18.21
2022-09-30T06:51:01.332Z,17.66
2022-09-30T06:53:29.383Z,17.91
2022-09-30T06:55:58.833Z,17.40
2022-09-30T06:58:25.887Z,17.60
2022-09-30T07:01:06.453Z,18.19
2022-09-30T07:03:35.750Z,18.44
2022-09-30T07:06:05.515Z,18.17
2022-09-30T07:08:34.430Z,18.43
2022-09-30T07:11:04.498Z,18.61
2022-09-30T07:13:31.304Z,18.53
2022-09-30T07:15:58.190Z,18.27
2022-09-30T07:18:28.086Z,18.56
2022-09-30T07:20:56.298Z,18.79
2022-09-30T07:23:27.038Z,18.58
2022-09-30T07:26:00.331Z,18.59
2022-09-30T07:28:32.047Z,18.51
2022-09-30T07:31:30.754Z,19.00
2022-09-30T07:33:52.842Z,19.00
2022-09-30T07:36:31.871Z,18.62
2022-09-30T07:39:00.381Z,18.87
2022-09-30T07:41:29.230Z,18.97
2022-09-30T07:43:59.771Z,18.57
2022-09-30T07:46:32.390Z,18.67
2022-09-30T07:49:04.178Z,18.92
2022-09-30T07:51:35.848Z,18.32
2022-09-30T07:54:07.830Z,18.93
2022-09-30T07:56:57.814Z,19.20
2022-09-30T07:59:23.171Z,18.71
2022-09-30T08:01:50.847Z,18.82
2022-09-30T08:04:19.779Z,19.23
2022-09-30T08:06:50.142Z,18.99
2022-09-30T08:09:19.346Z,19.25
2022-09-30T08:11:46.039Z,19.57
2022-09-30T08:14:16.697Z,19.50
2022-09-30T08:16:43.447Z,19.76
2022-09-30T08:19:18.073Z,19.51
2022-09-30T08:21:45.389Z,19.55
2022-09-30T08:24:13.014Z,19.56
2022-09-30T08:26:40.400Z,20.10
2022-09-30T08:29:07.513Z,19.98
2022-09-30T08:31:34.777Z,20.17
2022-09-30T08:34:03.171Z,20.39
2022-09-30T08:36:30.412Z,20.64
2022-09-30T08:38:57.186Z,20.36
2022-09-30T08:41:43.157Z,20.48
2022-09-30T08:44:46.426Z,20.50
2022-09-30T08:47:31.519Z,20.73
2022-09-30T08:50:16.809Z,20.47
2022-09-30T08:52:54.127Z,20.72
2022-09-30T08:55:24.267Z,20.03
2022-09-30T08:57:53.042Z,20.50
2022-09-30T09:00:21.006Z,20.89
2022-09-30T09:02:57.299Z,21.03
2022-09-30T09:06:02.489Z,21.05
2022-09-30T09:08:44.243Z,20.34
2022-09-30T09:11:31.255Z,21.19
2022-09-30T09:14:31.600Z,21.28
2022-09-30T09:17:16.413Z,21.05
2022-09-30T09:19:49.566Z,21.38
2022-09-30T09:22:18.222Z,21.67
2022-09-30T09:24:49.198Z,21.28
2022-09-30T09:27:44.090Z,21.18
2022-09-30T09:30:15.697Z,21.47
2022-09-30T09:32:44.302Z,21.59
2022-09-30T09:35:17.505Z,21.26
2022-09-30T09:38:09.274Z,21.83
2022-09-30T09:40:57.392Z,21.72
2022-09-30T09:44:02.743Z,21.56
2022-09-30T09:46:46.624Z,21.85
2022-09-30T09:49:23.587Z,21.66
2022-09-30T09:51:50.193Z,22.17
2022-09-30T09:54:21.480Z,22.47
2022-09-30T09:56:48.133Z,22.21
2022-09-30T09:59:20.227Z,22.18
2022-09-30T10:01:50.629Z,22.42
2022-09-30T10:04:27.497Z,22.62
2022-09-30T10:06:55.397Z,22.51
2022-09-30T10:09:31.385Z,22.44
2022-09-30T10:12:25.944Z,22.19
2022-09-30T10:14:58.041Z,22.19
2022-09-30T10:17:29.673Z,22.61
2022-09-30T10:20:14.774Z,22.90
2022-09-30T10:22:41.693Z,22.93
2022-09-30T10:25:13.993Z,22.88
2022-09-30T10:28:20.890Z,23.01
2022-09-30T10:31:04.177Z,23.44
2022-09-30T10:33:41.819Z,23.33
2022-09-30T10:36:13.821Z,23.18
2022-09-30T10:39:19.747Z,23.25
2022-09-30T10:41:46.540Z,23.61
2022-09-30T10:44:19.946Z,23.56
2022-09-30T10:46:49.604Z,23.68
2022-09-30T10:49:31.248Z,23.97
2022-09-30T10:52:00.133Z,24.45
2022-09-30T10:54:47.230Z,24.09
2022-09-30T10:57:33.559Z,24.27
2022-09-30T11:00:07.937Z,24.41
2022-09-30T11:02:37.392Z,24.47
2022-09-30T11:05:19.194Z,24.25
2022-09-30T11:08:13.217Z,24.50
2022-09-30T11:10:53.846Z,24.26
2022-09-30T11:13:49.188Z,24.51
2022-09-30T11:16:24.933Z,24.54
2022-09-30T11:19:28.035Z,24.57
2022-09-30T11:22:09.033Z,24.39
2022-09-30T11:24:42.491Z,24.27
2022-09-30T11:27:17.833Z,24.53
2022-09-30T11:30:34.789Z,24.57
2022-09-30T11:33:17.410Z,24.62
2022-09-30T11:36:14.996Z,24.94
2022-09-30T11:39:11.588Z,25.00
2022-09-30T11:41:42.269Z,24.62
2022-09-30T11:44:23.602Z,25.09
2022-09-30T11:47:19.140Z,25.22
2022-09-30T11:49:51.504Z,24.89
2022-09-30T11:52:47.201Z,24.91
2022-09-30T11:55:42.683Z,25.09
2022-09-30T11:58:36.566Z,25.30
2022-09-30T12:01:13.405Z,24.92
2022-09-30T12:03:48.238Z,25.01
2022-09-30T12:06:40.707Z,25.10
2022-09-30T12:09:25.431Z,24.94
2022-09-30T12:11:57.738Z,24.90
2022-09-30T12:14:33.469Z,24.93
2022-09-30T12:17:03.593Z,25.07
2022-09-30T12:19:40.044Z,25.00
2022-09-30T12:22:16.323Z,25.19
2022-09-30T12:24:47.702Z,25.19
2022-09-30T12:27:41.651Z,25.36
2022-09-30T12:30:23.104Z,25.04
2022-09-30T12:32:56.179Z,25.34
2022-09-30T12:35:43.996Z,25.40
2022-09-30T12:38:39.336Z,25.05
2022-09-30T12:41:15.253Z,25.46
2022-09-30T12:43:41.787Z,25.23
2022-09-30T12:46:42.264Z,25.41
2022-09-30T12:49:15.895Z,25.26
2022-09-30T12:51:44.886Z,25.18
2022-09-30T12:54:24.728Z,25.29
2022-09-30T12:57:00.514Z,25.56
2022-09-30T12:59:32.618Z,25.76
2022-09-30T13:02:02.726Z,25.33
2022-09-30T13:04:33.376Z,25.52
2022-09-30T13:06:59.953Z,25.48
2022-09-30T13:09:55.298Z,25.32
2022-09-30T13:12:41.112Z,25.68
2022-09-30T13:15:29.272Z,25.30
2022-09-30T13:18:25.433Z,25.30
2022-09-30T13:20:57.568Z,25.36
2022-09-30T13:23:49.209Z,25.52
2022-09-30T13:26:27.989Z,25.46
2022-09-30T13:29:01.858Z,25.46
2022-09-30T13:31:32.550Z,25.32
2022-09-30T13:34:02.014Z,25.38
2022-09-30T13:36:40.928Z,25.10
2022-09-30T13:39:40.366Z,25.09
2022-09-30T13:42:06.883Z,25.26
2022-09-30T13:44:40.257Z,25.45
2022-09-30T13:47:29.965Z,25.61
2022-09-30T13:50:04.212Z,25.52
2022-09-30T13:52:34.367Z,25.50
2022-09-30T13:55:29.166Z,25.50
2022-09-30T13:58:48.219Z,25.26
2022-09-30T14:01:49.873Z,25.14
2022-09-30T14:04:55.200Z,25.49
2022-09-30T14:07:43.665Z,25.30
2022-09-30T14:10:47.640Z,25.16
2022-09-30T14:13:42.454Z,25.10
2022-09-30T14:16:20.972Z,25.40
2022-09-30T14:19:24.221Z,25.43
2022-09-30T14:21:55.159Z,25.34
2022-09-30T14:24:24.021Z,25.38
2022-09-30T14:27:02.779Z,25.37
2022-09-30T14:29:58.510Z,25.33
2022-09-30T14:32:31.588Z,24.59
2022-09-30T14:35:00.494Z,25.01
2022-09-30T14:37:38.189Z,25.33
2022-09-30T14:40:12.935Z,25.46
2022-09-30T14:42:42.592Z,25.55
2022-09-30T14:45:10.424Z,25.30
2022-09-30T14:47:40.547Z,24.88
2022-09-30T14:50:20.729Z,24.95
2022-09-30T14:52:50.164Z,25.20
2022-09-30T14:55:19.543Z,25.30
2022-09-30T14:57:46.175Z,25.22
2022-09-30T15:00:20.044Z,25.28
2022-09-30T15:02:46.894Z,25.18
2022-09-30T15:05:16.191Z,25.14
2022-09-30T15:07:43.129Z,25.13
2022-09-30T15:10:18.836Z,25.05
2022-09-30T15:12:46.801Z,25.17
2022-09-30T15:15:34.543Z,24.94
2022-09-30T15:18:21.493Z,24.84
2022-09-30T15:20:48.884Z,24.84
2022-09-30T15:23:20.016Z,24.78
2022-09-30T15:25:46.832Z,24.75
2022-09-30T15:28:13.827Z,24.63
2022-09-30T15:30:43.140Z,24.57
2022-09-30T15:33:18.007Z,24.49
2022-09-30T15:35:45.692Z,24.35
2022-09-30T15:38:15.187Z,24.16
2022-09-30T15:40:46.106Z,24.14
2022-09-30T15:43:17.044Z,24.07
2022-09-30T15:45:46.107Z,23.95
2022-09-30T15:48:16.910Z,23.88
2022-09-30T15:50:49.041Z,23.81
2022-09-30T15:53:21.426Z,23.58
2022-09-30T15:55:55.759Z,23.51
2022-09-30T15:58:33.512Z,23.40
2022-09-30T16:01:09.418Z,23.29
2022-09-30T16:03:36.921Z,23.23
2022-09-30T16:06:09.315Z,23.12
2022-09-30T16:08:43.879Z,23.06
2022-09-30T16:11:20.621Z,22.89
2022-09-30T16:13:48.394Z,22.83
2022-09-30T16:16:28.106Z,22.69
2022-09-30T16:18:56.947Z,22.67
2022-09-30T16:21:45.828Z,22.68
2022-09-30T16:24:21.182Z,22.56
2022-09-30T16:26:57.807Z,22.51
2022-09-30T16:29:26.241Z,22.30
2022-09-30T16:31:55.848Z,22.33
2022-09-30T16:34:25.768Z,22.22
2022-09-30T16:37:03.834Z,22.11
2022-09-30T16:39:32.867Z,22.05
2022-09-30T16:41:59.442Z,21.98
2022-09-30T16:44:26.018Z,22.03
2022-09-30T16:46:52.846Z,21.98
2022-09-30T16:49:20.128Z,22.04
2022-09-30T16:51:49.670Z,22.03
2022-09-30T16:54:16.331Z,22.08
2022-09-30T16:56:45.955Z,22.15
2022-09-30T16:59:14.348Z,22.23
2022-09-30T17:01:41.748Z,22.40
2022-09-30T17:04:10.343Z,22.30
2022-09-30T17:06:38.514Z,22.09
2022-09-30T17:09:05.284Z,22.03
2022-09-30T17:11:38.021Z,21.87
2022-09-30T17:14:05.698Z,21.75
2022-09-30T17:16:33.475Z,21.38
2022-09-30T17:19:00.319Z,21.03
2022-09-30T17:21:27.945Z,21.29
2022-09-30T17:23:55.939Z,21.49
2022-09-30T17:26:22.703Z,21.41
2022-09-30T17:28:49.316Z,21.72
2022-09-30T17:31:19.332Z,21.66
2022-09-30T17:33:45.958Z,21.72
2022-09-30T17:36:13.430Z,21.71
2022-09-30T17:42:22.597Z,21.62
2022-09-30T17:44:49.210Z,21.59
2022-09-30T17:47:15.818Z,21.49
2022-09-30T17:49:45.013Z,21.42
2022-09-30T17:52:17.510Z,21.38
2022-09-30T17:54:46.655Z,21.32
2022-09-30T17:57:16.716Z,21.39
2022-09-30T17:59:45.345Z,21.20
2022-09-30T18:02:13.139Z,21.23
2022-09-30T18:04:39.992Z,21.29
2022-09-30T18:07:10.207Z,21.29
2022-09-30T18:09:39.169Z,21.22
2022-09-30T18:12:07.300Z,21.13
2022-09-30T18:14:38.205Z,21.13
2022-09-30T18:17:06.271Z,21.14
2022-09-30T18:19:35.580Z,21.17
2022-09-30T18:22:02.603Z,20.95
2022-09-30T18:24:47.909Z,21.14
2022-09-30T18:27:15.226Z,21.13
2022-09-30T18:29:42.055Z,21.13
2022-09-30T18:32:09.028Z,21.14
2022-09-30T18:34:35.693Z,21.11
2022-09-30T18:37:06.759Z,21.16
2022-09-30T18:39:38.211Z,21.09
2022-09-30T18:42:05.038Z,21.10
2022-09-30T18:44:33.694Z,21.07
2022-09-30T18:47:00.387Z,21.08
2022-09-30T18:49:27.046Z,20.89
2022-09-30T18:51:53.639Z,20.98
2022-09-30T18:54:20.925Z,21.03
2022-09-30T18:56:47.707Z,21.04
2022-09-30T18:59:18.185Z,20.95
2022-09-30T19:01:48.047Z,20.69
2022-09-30T19:04:15.161Z,20.12
2022-09-30T19:06:47.235Z,20.38
2022-09-30T19:09:16.424Z,20.64
2022-09-30T19:11:44.864Z,20.73
2022-09-30T19:14:13.741Z,20.72
2022-09-30T19:16:40.722Z,20.68
2022-09-30T19:19:10.387Z,20.69
2022-09-30T19:21:38.191Z,20.81
2022-09-30T19:24:06.865Z,21.01
2022-09-30T19:26:38.200Z,20.84
2022-09-30T19:29:07.271Z,20.91
2022-09-30T19:31:36.417Z,21.01
2022-09-30T19:34:14.655Z,21.00
2022-09-30T19:36:51.158Z,20.96
2022-09-30T19:39:45.417Z,20.55
2022-09-30T19:42:23.853Z,20.71
2022-09-30T19:44:56.204Z,20.43
2022-09-30T19:47:22.841Z,20.58
2022-09-30T19:49:49.547Z,20.68
2022-09-30T19:52:22.347Z,20.67
2022-09-30T19:54:50.804Z,20.64
2022-09-30T19:57:17.407Z,20.70
2022-09-30T19:59:44.085Z,20.69
2022-09-30T20:02:11.591Z,20.63
2022-09-30T20:04:39.686Z,20.56
2022-09-30T20:07:06.361Z,20.56
2022-09-30T20:09:32.980Z,20.55
2022-09-30T20:11:59.691Z,20.32
2022-09-30T20:14:44.840Z,20.39
2022-09-30T20:17:12.440Z,20.37
2022-09-30T20:19:39.220Z,20.38
2022-09-30T20:22:33.356Z,20.26
2022-09-30T20:25:25.654Z,20.20
2022-09-30T20:27:52.851Z,20.26
2022-09-30T20:30:25.602Z,20.23
2022-09-30T20:32:53.424Z,20.26
2022-09-30T20:35:21.283Z,20.22
2022-09-30T20:37:47.942Z,20.01
2022-09-30T20:40:14.845Z,19.95
2022-09-30T20:42:43.766Z,20.00
2022-09-30T20:45:11.000Z,19.97
2022-09-30T20:47:39.760Z,20.02
2022-09-30T20:50:07.099Z,20.10
2022-09-30T20:52:34.062Z,20.07
2022-09-30T20:55:03.256Z,20.17
2022-09-30T20:57:30.211Z,20.35
2022-09-30T20:59:59.211Z,20.30
2022-09-30T21:02:28.192Z,20.30
2022-09-30T21:04:57.571Z,20.15
2022-09-30T21:07:25.378Z,19.88
2022-09-30T21:09:52.612Z,20.20
2022-09-30T21:12:19.430Z,20.02
2022-09-30T21:14:46.170Z,19.88
2022-09-30T21:17:12.875Z,19.84
2022-09-30T21:19:40.033Z,19.93
2022-09-30T21:22:07.289Z,19.94
2022-09-30T21:24:41.246Z,19.97
2022-09-30T21:30:04.411Z,19.99
2022-09-30T21:32:30.989Z,19.98
2022-09-30T21:34:57.577Z,20.01
2022-09-30T21:37:24.668Z,20.05
2022-09-30T21:39:51.478Z,20.03
2022-09-30T21:42:19.029Z,19.97
2022-09-30T21:44:45.734Z,19.81
2022-09-30T21:47:12.315Z,19.80
2022-09-30T21:49:38.909Z,19.80
2022-09-30T21:52:09.253Z,19.59
2022-09-30T21:54:37.289Z,19.53
2022-09-30T21:57:04.007Z,19.70
2022-09-30T21:59:30.734Z,19.73
2022-09-30T22:01:57.446Z,19.72
2022-09-30T22:04:24.312Z,19.65
2022-09-30T22:06:50.987Z,19.42
2022-09-30T22:09:17.648Z,19.17
2022-09-30T22:11:44.340Z,19.07
2022-09-30T22:14:10.932Z,19.10
2022-09-30T22:16:38.116Z,19.14
2022-09-30T22:19:07.463Z,19.24
2022-09-30T22:21:36.898Z,19.26
2022-09-30T22:24:06.070Z,19.18
2022-09-30T22:26:33.379Z,18.78
2022-09-30T22:29:07.928Z,18.95
2022-09-30T22:31:34.995Z,19.18
2022-09-30T22:34:22.504Z,18.78
2022-09-30T22:37:08.016Z,19.03
2022-09-30T22:39:35.242Z,19.08
2022-09-30T22:42:02.264Z,19.25
2022-09-30T22:44:32.531Z,19.08
2022-09-30T22:47:00.235Z,19.03
2022-09-30T22:49:29.379Z,19.04
2022-09-30T22:51:56.990Z,18.26
2022-09-30T22:54:25.292Z,18.49
2022-09-30T22:56:52.335Z,18.45
2022-09-30T22:59:19.886Z,18.77
2022-09-30T23:01:46.858Z,18.97
2022-09-30T23:04:17.394Z,19.14
2022-09-30T23:06:49.043Z,18.97
2022-09-30T23:09:17.370Z,19.04
2022-09-30T23:11:46.081Z,19.14
2022-09-30T23:14:13.175Z,19.07
2022-09-30T23:16:40.347Z,18.89
2022-09-30T23:19:07.186Z,18.78
2022-09-30T23:21:34.261Z,18.68
2022-09-30T23:24:03.188Z,18.78
2022-09-30T23:26:31.192Z,18.75
2022-09-30T23:28:59.046Z,18.90
2022-09-30T23:31:26.573Z,18.85
2022-09-30T23:33:56.755Z,18.91
2022-09-30T23:36:32.036Z,18.87
2022-09-30T23:39:04.752Z,18.69
2022-09-30T23:41:32.816Z,17.99
2022-09-30T23:44:00.022Z,18.28
2022-09-30T23:46:26.925Z,18.37
2022-09-30T23:48:53.609Z,18.68
2022-09-30T23:51:20.279Z,18.80
2022-09-30T23:53:46.977Z,18.83
2022-09-30T23:56:16.385Z,18.73
2022-09-30T23:58:43.874Z,18.88
